Lucas Tavares

Olheiro - Fluminense
4 Abr 2027
Domingo
Processo

Personalidade

Adaptabilidade (2) Ambição (6) Controvérsia (1) Lealdade (19) Pressão (13) Profissionalismo (3) Espírito Esportivo (15) Temperamento (4)

Perfil

Estilo de Treinamento Democrático
Licença Continental B
Determinação 15
Gestão de Pessoas 9
Motivação 14
Disciplina 13
Satisfação no Trabalho
100%
Fadiga
0%
Função Olheiro
Salário 60.8K p/s
Contrato 14.03.2028

Desempenho

Comportamento Bom
Eficácia do Treinamento
58%
Desenvolvimento do Jogador
35%
Prevenção de Lesões
40%
Implementação Tática
65%

Eventos Recentes

Participou de uma reunião de recrutamento agora
Avaliou um jogador agora
Avaliou um jogador 7d atrás
Participou de uma reunião de recrutamento 7d atrás
Avaliou um jogador 7d atrás
Avaliou um jogador 7d atrás
Avaliou um jogador 7d atrás
Avaliou um jogador 7d atrás

Monitorando agora

103
Jogador Clube Status Habilidade Confiança Observado Última observação Último voto
Eduardo Felicíssimo Sporting CP Ativo 106 / 113 40% 3 02.04.2027 -
Louis Leroux FC Nantes Ativo 119 / 125 40% 1 02.04.2027 -
Martim Cunha Porto Ativo 94 / 105 40% 1 02.04.2027 -
Gonçalo Oliveira Benfica Ativo 111 / 115 40% 3 31.03.2027 -
Vinícius Lira Santos Ativo 118 / 121 40% 2 31.03.2027 -
Toni Tamarit Alverca Ativo 120 / 126 40% 1 31.03.2027 -
Anthony Patterson Wrexham Ativo 139 / 127 40% 4 30.03.2027 -
Michael Cooper Sheffield United Ativo 140 / 135 40% 5 30.03.2027 -
Myles Roberts Doncaster Rovers Ativo 95 / 109 40% 2 30.03.2027 -
Bastien Meupiyou Alverca Ativo 114 / 121 40% 2 28.03.2027 -
Miguel Figueiredo Benfica Ativo 99 / 117 40% 1 28.03.2027 -
Bilal Bayazıt Kayserispor Ativo 113 / 128 40% 1 27.03.2027 -
Lorenzo Palmisani Frosinone Ativo 130 / 135 40% 1 27.03.2027 -
Eddy Doué Estrela da Amadora Ativo 99 / 110 40% 2 24.03.2027 -
Milan Roganović Partizan Ativo 113 / 115 40% 1 24.03.2027 -
Eliás Montiel Pachuca Ativo 129 / 131 40% 1 23.03.2027 -
Moncef Zekri Sporting CP Ativo 98 / 108 40% 1 23.03.2027 -
Caleb Yirenkyi Coventry City Ativo 125 / 143 40% 2 22.03.2027 -
Bernardo Lima Porto Ativo 104 / 102 40% 2 22.03.2027 -
Chris Rigg Sunderland Ativo 123 / 143 40% 2 20.03.2027 -
Daniel Banjaqui Benfica Ativo 111 / 116 40% 2 20.03.2027 -
James Dornelly Peterborough United Ativo 93 / 111 40% 1 20.03.2027 -
Joaquin Seys Club Brugge Ativo 136 / 126 40% 1 14.03.2027 -
Salvador Blopá Sporting CP Ativo 109 / 121 40% 1 13.03.2027 -
Jakub Stolarczyk Leicester City Ativo 136 / 133 40% 5 09.03.2027 -
Adriel Torreense Ativo 109 / 116 40% 3 09.03.2027 -
Lucas Cañizares Tondela Ativo 105 / 111 40% 2 09.03.2027 -
Cezary Miszta Rio Ave Ativo 122 / 127 40% 6 08.03.2027 -
Antonio Gomis Vizela Ativo 117 / 118 40% 2 08.03.2027 -
Nacer Tielemans Mouscron Ativo 130 / 131 40% 1 05.03.2027 -
Honest Ahanor Atalanta Ativo 131 / 130 40% 1 05.03.2027 -
Ruslan Neshcheret Dynamo Kyiv Ativo 116 / 117 40% 2 04.03.2027 -
Gabriel Brazão Santos Ativo 130 / 139 40% 8 02.03.2027 -
Zach Hemming Chesterfield Ativo 98 / 109 40% 1 02.03.2027 -
Lukas Jensen Millwall Ativo 118 / 117 40% 2 27.02.2027 -
Juan Diego Castillo Vitoria Guimaraes Ativo 121 / 118 40% 1 27.02.2027 -
Sam Tickle Wigan Athletic Ativo 138 / 131 40% 4 23.02.2027 -
Taye Ashby-Hammond Walsall Ativo 108 / 108 40% 3 23.02.2027 -
Mandla Jali SuperSport United Ativo 115 / 115 40% 2 20.02.2027 -
Nathan Bishop AFC Wimbledon Ativo 109 / 103 40% 2 20.02.2027 -
Will Dennis Milton Keynes Dons Ativo 105 / 106 40% 1 20.02.2027 -
Jordan Amissah Burton Albion Ativo 107 / 109 40% 1 14.02.2027 -
Bernardo Fontes Braga Ativo 137 / 124 40% 4 13.02.2027 -
Edoardo Corvi Parma Ativo 138 / 137 40% 1 09.02.2027 -
Egoitz Arana Real Sociedad Ativo 107 / 108 40% 1 09.02.2027 -
Christian Joel Sánchez Leiria Ativo 109 / 113 40% 3 06.02.2027 -
Vitor Hugo Lusitânia Lourosa Ativo 100 / 108 40% 2 31.01.2027 -
Axel Alderweireld KV Oostende Ativo 144 / 136 40% 1 31.01.2027 -
Jakub Surovčík Sparta Prague Ativo 112 / 114 40% 1 31.01.2027 -
Alfonso Pastor Maritimo Ativo 109 / 103 40% 4 25.01.2027 -
Oleksandr Saputin Zorya Ativo 127 / 127 40% 1 25.01.2027 -
Leo Kokubo Sint-Truiden Ativo 120 / 113 40% 1 25.01.2027 -
Elia Caprile Cagliari Ativo 140 / 140 40% 1 21.01.2027 -
Hugo Souza Corinthians Ativo 130 / 135 40% 6 09.01.2027 -
Yehvann Diouf OGC Nice Ativo 141 / 131 40% 1 09.01.2027 -
Jamie Cumming Oxford United Ativo 130 / 118 40% 2 08.01.2027 -
Radek Vítek Middlesbrough Ativo 129 / 134 40% 4 08.01.2027 -
Iñaki Peña Panathinaikos Ativo 141 / 134 40% 1 08.01.2027 -
Patrick Sequeira Casa Pia Ativo 123 / 126 40% 5 20.12.2026 -
Matheus Mendes Alverca Ativo 128 / 115 40% 2 20.12.2026 -
Mateo Cassierra Atlético Mineiro Rejeitado 140 / 138 72% 1 02.12.2026 -
Korede Osundina Casa Pia Ativo 107 / 113 40% 2 27.11.2026 -
José Bica Leixões Ativo 112 / 103 40% 2 27.11.2026 -
Efraín Álvarez Guadalajara Ativo 129 / 134 40% 1 27.11.2026 -
Vinícius Lopes Santa Clara Ativo 112 / 124 40% 2 25.11.2026 -
Martín Tejón Maritimo Ativo 108 / 118 40% 2 25.11.2026 -
Cesar Corona Veracruz Ativo 144 / 137 40% 1 25.11.2026 -
Óscar Aranda Espanyol Ativo 131 / 127 40% 2 24.11.2026 -
Giorgos Koutsias Famalicao Ativo 111 / 126 40% 1 24.11.2026 -
Gustavo Silva Vitoria Guimaraes Ativo 120 / 124 40% 1 24.11.2026 -
Sydney van Hooijdonk Estrela da Amadora Ativo 118 / 113 40% 2 15.11.2026 -
Lucas Duarte Felgueiras Ativo 103 / 106 40% 3 15.11.2026 -
Lazar Carević Famalicao Ativo 129 / 133 40% 4 13.11.2026 -
Leo Román Deportivo La Coruña Ativo 149 / 149 40% 3 13.11.2026 -
João Valido Chaves Ativo 118 / 116 40% 4 12.11.2026 -
Camilo Durán Bloemfontein Celtic Ativo 111 / 124 40% 2 10.11.2026 -
Tamble Monteiro Rio Ave Ativo 125 / 124 40% 1 10.11.2026 -
Nicolò Tresoldi Club Brugge Ativo 122 / 132 40% 1 10.11.2026 -
Luis Ingolotti Atlético Tucumán Ativo 121 / 122 40% 2 08.11.2026 -
Alexandre Duville-Parsemain Moreirense Ativo 115 / 113 40% 2 05.11.2026 -
Carl Rushworth Coventry City Ativo 142 / 134 40% 2 03.11.2026 -
Nicolás Sumavil Platense Ativo 122 / 112 40% 3 29.10.2026 -
Sebastián Meza Huracán Ativo 129 / 126 40% 1 27.10.2026 -
Manuel Baldé Wadi Degla Ativo 106 / 92 40% 2 21.10.2026 -
Esteban Glellel Shonan Bellmare Ativo 115 / 112 40% 1 18.10.2026 -
João Costa Santa Clara Ativo 120 / 112 40% 1 16.10.2026 -
Louis Munteanu DC United Ativo 131 / 129 40% 1 16.10.2026 -
Luca Orellano Monterrey Ativo 141 / 130 40% 2 14.10.2026 -
Jalen Blesa Rio Ave Ativo 113 / 111 40% 1 14.10.2026 -
Michy Fellaini KV Oostende Ativo 145 / 139 40% 1 13.10.2026 -
Luan Santos Imotski Ativo 101 / 90 40% 1 13.10.2026 -
Cheikh Sabaly Vancouver Whitecaps Ativo 120 / 124 40% 1 07.10.2026 -
Alfonso Trezza Arouca Ativo 120 / 120 40% 1 02.10.2026 -
Henrique Araújo Casa Pia Ativo 122 / 127 40% 2 29.09.2026 -
Tiago Silva Penafiel Ativo 104 / 111 40% 1 28.09.2026 -
Lucão Gil Vicente Ativo 115 / 119 40% 1 22.09.2026 -
Dylan Nandín Arouca Ativo 120 / 110 40% 1 14.09.2026 -
Samuel Soares Benfica Ativo 124 / 134 40% 1 13.09.2026 -
Roberto Fernández Braga Ativo 141 / 145 40% 1 11.09.2026 -
Gabriel Barbosa Farense Ativo 116 / 113 40% 1 11.09.2026 -
Figueiredo Alverca Ativo 122 / 125 40% 1 01.09.2026 -
Vitor Roque Palmeiras Ativo 135 / 150 40% 1 01.09.2026 -
Pau Víctor Braga Ativo 143 / 134 40% 1 01.09.2026 -